RYR16GE ESGG-EGPH
Flight info
| Callsign | RYR16GE |
|---|---|
| Flight time | 1h 34m |
| Altitude | 36000 |
| Route | DETNA N866 AAL DCT VAXIT DCT REKNA DCT ROBEM DCT AGPED |
| Aircraft | B738/M-SDE3FGILRWY/SB1 |
Departure
| Time | 2026-04-26 21:01 |
|---|---|
| Airport | Göteborg Landvetter Airport (ESGG) |
Arrival
| Time | 2026-04-26 22:35 |
|---|---|
| Airport | Edinburgh Airport (EGPH) |
| Time | Latitude | Longitude | Altitude | Speed | Heading |
|---|---|---|---|---|---|
| 2026-04-26 20:25 | 57.66514 | 12.29100 | 523 ft | 0 kts | 116° |
| 2026-04-26 20:51 | 57.66515 | 12.29095 | 523 ft | 2 kts | 116° |
| 2026-04-26 20:51 | 57.66523 | 12.29065 | 523 ft | 3 kts | 116° |
| 2026-04-26 20:51 | 57.66532 | 12.29031 | 523 ft | 3 kts | 116° |
| 2026-04-26 20:51 | 57.66539 | 12.29004 | 523 ft | 3 kts | 120° |
| 2026-04-26 20:52 | 57.66550 | 12.28978 | 523 ft | 3 kts | 160° |
| 2026-04-26 20:52 | 57.66567 | 12.28976 | 523 ft | 3 kts | 202° |
| 2026-04-26 20:52 | 57.66580 | 12.28987 | 523 ft | 1 kts | 207° |
| 2026-04-26 20:52 | 57.66584 | 12.28990 | 523 ft | 0 kts | 207° |
| 2026-04-26 20:55 | 57.66577 | 12.28984 | 523 ft | 3 kts | 207° |
| 2026-04-26 20:55 | 57.66543 | 12.28957 | 523 ft | 7 kts | 189° |
| 2026-04-26 20:56 | 57.66494 | 12.28964 | 522 ft | 7 kts | 192° |
| 2026-04-26 20:56 | 57.66447 | 12.28926 | 522 ft | 8 kts | 204° |
| 2026-04-26 20:56 | 57.66395 | 12.28880 | 521 ft | 9 kts | 207° |
| 2026-04-26 20:56 | 57.66332 | 12.28821 | 521 ft | 11 kts | 207° |
| 2026-04-26 20:57 | 57.66262 | 12.28755 | 520 ft | 11 kts | 214° |
| 2026-04-26 20:57 | 57.66256 | 12.28627 | 520 ft | 11 kts | 296° |
| 2026-04-26 20:57 | 57.66290 | 12.28499 | 520 ft | 11 kts | 296° |
| 2026-04-26 20:57 | 57.66306 | 12.28369 | 519 ft | 11 kts | 247° |
| 2026-04-26 20:58 | 57.66240 | 12.28286 | 519 ft | 13 kts | 206° |
| 2026-04-26 20:58 | 57.66145 | 12.28199 | 518 ft | 17 kts | 205° |
| 2026-04-26 20:58 | 57.66028 | 12.28094 | 516 ft | 20 kts | 205° |
| 2026-04-26 20:58 | 57.65905 | 12.27983 | 515 ft | 19 kts | 206° |
| 2026-04-26 20:59 | 57.65793 | 12.27881 | 514 ft | 17 kts | 205° |
| 2026-04-26 20:59 | 57.65717 | 12.27778 | 513 ft | 11 kts | 250° |
| 2026-04-26 20:59 | 57.65756 | 12.27677 | 514 ft | 11 kts | 345° |
| 2026-04-26 20:59 | 57.65833 | 12.27667 | 514 ft | 12 kts | 358° |
| 2026-04-26 21:00 | 57.65924 | 12.27671 | 514 ft | 16 kts | 5° |
| 2026-04-26 21:00 | 57.66107 | 12.27817 | 514 ft | 57 kts | 26° |
| 2026-04-26 21:00 | 57.66685 | 12.28342 | 523 ft | 125 kts | 26° |
| 2026-04-26 21:00 | 57.67624 | 12.29221 | 690 ft | 165 kts | 27° |
| 2026-04-26 21:01 | 57.68635 | 12.30143 | 1601 ft | 159 kts | 22° |
| 2026-04-26 21:01 | 57.69686 | 12.30918 | 2270 ft | 171 kts | 5° |
| 2026-04-26 21:01 | 57.70494 | 12.30684 | 2446 ft | 189 kts | 332° |
| 2026-04-26 21:01 | 57.71430 | 12.28849 | 2859 ft | 204 kts | 306° |
| 2026-04-26 21:02 | 57.72564 | 12.25948 | 3656 ft | 212 kts | 309° |
| 2026-04-26 21:02 | 57.73456 | 12.23737 | 4448 ft | 212 kts | 309° |
| 2026-04-26 21:02 | 57.74134 | 12.21181 | 4914 ft | 237 kts | 279° |
| 2026-04-26 21:02 | 57.73929 | 12.17961 | 5330 ft | 261 kts | 256° |
| 2026-04-26 21:03 | 57.73429 | 12.14653 | 6102 ft | 266 kts | 256° |
| 2026-04-26 21:03 | 57.73094 | 12.12434 | 6664 ft | 268 kts | 257° |
| 2026-04-26 21:03 | 57.72597 | 12.09063 | 7471 ft | 270 kts | 258° |
| 2026-04-26 21:03 | 57.72111 | 12.05670 | 8323 ft | 270 kts | 259° |
| 2026-04-26 21:04 | 57.71636 | 12.02261 | 9158 ft | 272 kts | 259° |
| 2026-04-26 21:04 | 57.71015 | 11.97709 | 10261 ft | 274 kts | 260° |
| 2026-04-26 21:04 | 57.70543 | 11.94193 | 10739 ft | 288 kts | 261° |
| 2026-04-26 21:04 | 57.70044 | 11.90410 | 10912 ft | 311 kts | 260° |
| 2026-04-26 21:05 | 57.69686 | 11.87692 | 11026 ft | 326 kts | 260° |
| 2026-04-26 21:05 | 57.69137 | 11.83535 | 11403 ft | 339 kts | 260° |
| 2026-04-26 21:05 | 57.68563 | 11.79223 | 12036 ft | 344 kts | 260° |
| 2026-04-26 21:05 | 57.67980 | 11.74858 | 12771 ft | 347 kts | 260° |
| 2026-04-26 21:06 | 57.67393 | 11.70464 | 13513 ft | 351 kts | 260° |
| 2026-04-26 21:06 | 57.66799 | 11.66020 | 14223 ft | 355 kts | 260° |
| 2026-04-26 21:06 | 57.66197 | 11.61523 | 14879 ft | 358 kts | 260° |
| 2026-04-26 21:06 | 57.65589 | 11.56995 | 15594 ft | 361 kts | 260° |
| 2026-04-26 21:07 | 57.64975 | 11.52427 | 16300 ft | 364 kts | 260° |
| 2026-04-26 21:07 | 57.64353 | 11.47815 | 16995 ft | 368 kts | 260° |
| 2026-04-26 21:07 | 57.63734 | 11.43231 | 17671 ft | 371 kts | 260° |
| 2026-04-26 21:07 | 57.63098 | 11.38539 | 18349 ft | 375 kts | 260° |
| 2026-04-26 21:08 | 57.62455 | 11.33812 | 18954 ft | 378 kts | 260° |
| 2026-04-26 21:08 | 57.61805 | 11.29045 | 19562 ft | 380 kts | 260° |
| 2026-04-26 21:08 | 57.61151 | 11.24254 | 20179 ft | 382 kts | 260° |
| 2026-04-26 21:08 | 57.60491 | 11.19440 | 20775 ft | 384 kts | 260° |
| 2026-04-26 21:09 | 57.59825 | 11.14599 | 21351 ft | 387 kts | 260° |
| 2026-04-26 21:09 | 57.59046 | 11.09763 | 21908 ft | 394 kts | 253° |
| 2026-04-26 21:09 | 57.57834 | 11.05139 | 22469 ft | 402 kts | 245° |
| 2026-04-26 21:09 | 57.56231 | 11.00894 | 23009 ft | 410 kts | 237° |
| 2026-04-26 21:10 | 57.54410 | 10.96775 | 23541 ft | 414 kts | 236° |
| 2026-04-26 21:10 | 57.52552 | 10.92661 | 24020 ft | 417 kts | 236° |
| 2026-04-26 21:10 | 57.50678 | 10.88525 | 24443 ft | 419 kts | 236° |
| 2026-04-26 21:10 | 57.48797 | 10.84358 | 24843 ft | 422 kts | 236° |
| 2026-04-26 21:11 | 57.46913 | 10.80167 | 25267 ft | 424 kts | 236° |
| 2026-04-26 21:11 | 57.45022 | 10.75949 | 25666 ft | 426 kts | 236° |
| 2026-04-26 21:11 | 57.43127 | 10.71714 | 26070 ft | 428 kts | 236° |
| 2026-04-26 21:11 | 57.41244 | 10.67509 | 26447 ft | 430 kts | 236° |
| 2026-04-26 21:12 | 57.39327 | 10.63232 | 26828 ft | 433 kts | 236° |
| 2026-04-26 21:12 | 57.37395 | 10.58926 | 27197 ft | 435 kts | 236° |
| 2026-04-26 21:12 | 57.35450 | 10.54603 | 27563 ft | 438 kts | 236° |
| 2026-04-26 21:12 | 57.33496 | 10.50268 | 27918 ft | 440 kts | 235° |
| 2026-04-26 21:13 | 57.31526 | 10.45905 | 28260 ft | 442 kts | 235° |
| 2026-04-26 21:13 | 57.29548 | 10.41532 | 28612 ft | 445 kts | 235° |
| 2026-04-26 21:13 | 57.27556 | 10.37137 | 28947 ft | 447 kts | 235° |
| 2026-04-26 21:13 | 57.25552 | 10.32725 | 29268 ft | 449 kts | 235° |
| 2026-04-26 21:14 | 57.23539 | 10.28300 | 29587 ft | 451 kts | 235° |
| 2026-04-26 21:14 | 57.21552 | 10.23942 | 30049 ft | 449 kts | 235° |
| 2026-04-26 21:14 | 57.19545 | 10.19551 | 30579 ft | 445 kts | 235° |
| 2026-04-26 21:14 | 57.17554 | 10.15196 | 30973 ft | 444 kts | 235° |
| 2026-04-26 21:15 | 57.15561 | 10.10842 | 31271 ft | 445 kts | 235° |
| 2026-04-26 21:15 | 57.13569 | 10.06498 | 31662 ft | 443 kts | 236° |
| 2026-04-26 21:15 | 57.11810 | 10.01925 | 32082 ft | 434 kts | 245° |
| 2026-04-26 21:15 | 57.10510 | 9.96972 | 32444 ft | 428 kts | 253° |
| 2026-04-26 21:16 | 57.09593 | 9.91804 | 32751 ft | 423 kts | 261° |
| 2026-04-26 21:16 | 57.09072 | 9.86573 | 33079 ft | 421 kts | 264° |
| 2026-04-26 21:16 | 57.08594 | 9.81278 | 33446 ft | 419 kts | 264° |
| 2026-04-26 21:16 | 57.08122 | 9.75992 | 33798 ft | 418 kts | 264° |
| 2026-04-26 21:17 | 57.07645 | 9.70720 | 34126 ft | 418 kts | 264° |
| 2026-04-26 21:17 | 57.07161 | 9.65456 | 34428 ft | 418 kts | 264° |
| 2026-04-26 21:17 | 57.06671 | 9.60204 | 34692 ft | 417 kts | 264° |
| 2026-04-26 21:17 | 57.06174 | 9.54945 | 34929 ft | 418 kts | 264° |
| 2026-04-26 21:18 | 57.05672 | 9.49685 | 35170 ft | 418 kts | 264° |
| 2026-04-26 21:18 | 57.05167 | 9.44431 | 35408 ft | 418 kts | 263° |
| 2026-04-26 21:18 | 57.04665 | 9.39243 | 35635 ft | 418 kts | 263° |
| 2026-04-26 21:18 | 57.04153 | 9.33984 | 35874 ft | 418 kts | 263° |
| 2026-04-26 21:19 | 57.03640 | 9.28730 | 36104 ft | 418 kts | 263° |
| 2026-04-26 21:19 | 57.03125 | 9.23481 | 36291 ft | 419 kts | 263° |
| 2026-04-26 21:19 | 57.02604 | 9.18188 | 36275 ft | 422 kts | 263° |
| 2026-04-26 21:20 | 57.01552 | 9.07581 | 36277 ft | 422 kts | 263° |
| 2026-04-26 21:20 | 57.00506 | 8.97153 | 36280 ft | 416 kts | 263° |
| 2026-04-26 21:21 | 56.99454 | 8.86736 | 36289 ft | 415 kts | 263° |
| 2026-04-26 21:21 | 56.98396 | 8.76352 | 36292 ft | 414 kts | 263° |
| 2026-04-26 21:22 | 56.97325 | 8.65904 | 36383 ft | 420 kts | 263° |
| 2026-04-26 21:22 | 56.96780 | 8.60628 | 36581 ft | 421 kts | 263° |
| 2026-04-26 21:22 | 56.96233 | 8.55366 | 36860 ft | 420 kts | 263° |
| 2026-04-26 21:23 | 56.95143 | 8.44953 | 37304 ft | 420 kts | 263° |
| 2026-04-26 21:23 | 56.94589 | 8.39693 | 37489 ft | 420 kts | 262° |
| 2026-04-26 21:23 | 56.94034 | 8.34439 | 37716 ft | 420 kts | 262° |
| 2026-04-26 21:23 | 56.93478 | 8.29198 | 37943 ft | 419 kts | 262° |
| 2026-04-26 21:24 | 56.92919 | 8.23954 | 38114 ft | 420 kts | 262° |
| 2026-04-26 21:24 | 56.92358 | 8.18714 | 38266 ft | 420 kts | 262° |
| 2026-04-26 21:24 | 56.91231 | 8.08240 | 38292 ft | 423 kts | 262° |
| 2026-04-26 21:25 | 56.90087 | 7.97720 | 38299 ft | 421 kts | 262° |
| 2026-04-26 21:25 | 56.88941 | 7.87256 | 38302 ft | 418 kts | 262° |
| 2026-04-26 21:26 | 56.87791 | 7.76847 | 38297 ft | 417 kts | 262° |
| 2026-04-26 21:26 | 56.86637 | 7.66480 | 38295 ft | 415 kts | 262° |
| 2026-04-26 21:27 | 56.85486 | 7.56214 | 38293 ft | 415 kts | 261° |
| 2026-04-26 21:27 | 56.84318 | 7.45887 | 38301 ft | 415 kts | 261° |
| 2026-04-26 21:28 | 56.83139 | 7.35541 | 38310 ft | 417 kts | 261° |
| 2026-04-26 21:28 | 56.81947 | 7.25165 | 38314 ft | 418 kts | 261° |
| 2026-04-26 21:29 | 56.80743 | 7.14763 | 38318 ft | 420 kts | 261° |
| 2026-04-26 21:29 | 56.79532 | 7.04393 | 38317 ft | 421 kts | 261° |
| 2026-04-26 21:30 | 56.78302 | 6.93933 | 38319 ft | 422 kts | 260° |
| 2026-04-26 21:30 | 56.77060 | 6.83459 | 38317 ft | 423 kts | 260° |
| 2026-04-26 21:31 | 56.75808 | 6.72974 | 38317 ft | 424 kts | 260° |
| 2026-04-26 21:31 | 56.74545 | 6.62481 | 38327 ft | 424 kts | 260° |
| 2026-04-26 21:32 | 56.73283 | 6.52077 | 38327 ft | 423 kts | 260° |
| 2026-04-26 21:32 | 56.72005 | 6.41619 | 38328 ft | 423 kts | 260° |
| 2026-04-26 21:33 | 56.70719 | 6.31179 | 38329 ft | 422 kts | 259° |
| 2026-04-26 21:33 | 56.69429 | 6.20774 | 38324 ft | 421 kts | 259° |
| 2026-04-26 21:34 | 56.68140 | 6.10458 | 38324 ft | 420 kts | 259° |
| 2026-04-26 21:34 | 56.66836 | 6.00103 | 38335 ft | 420 kts | 259° |
| 2026-04-26 21:35 | 56.65527 | 5.89775 | 38335 ft | 419 kts | 259° |
| 2026-04-26 21:35 | 56.64211 | 5.79468 | 38337 ft | 419 kts | 259° |
| 2026-04-26 21:36 | 56.62896 | 5.69241 | 38338 ft | 418 kts | 259° |
| 2026-04-26 21:36 | 56.61565 | 5.58967 | 38336 ft | 418 kts | 259° |
| 2026-04-26 21:37 | 56.60226 | 5.48701 | 38336 ft | 418 kts | 259° |
| 2026-04-26 21:37 | 56.58881 | 5.38453 | 38337 ft | 418 kts | 259° |
| 2026-04-26 21:38 | 56.57527 | 5.28211 | 38337 ft | 418 kts | 259° |
| 2026-04-26 21:38 | 56.56172 | 5.18033 | 38336 ft | 418 kts | 259° |
| 2026-04-26 21:39 | 56.54802 | 5.07797 | 38341 ft | 418 kts | 259° |
| 2026-04-26 21:39 | 56.53283 | 4.97615 | 38334 ft | 421 kts | 251° |
| 2026-04-26 21:40 | 56.50994 | 4.87850 | 38343 ft | 422 kts | 249° |
| 2026-04-26 21:40 | 56.48636 | 4.78110 | 38345 ft | 422 kts | 249° |
| 2026-04-26 21:41 | 56.46320 | 4.68437 | 38335 ft | 422 kts | 250° |
| 2026-04-26 21:41 | 56.44000 | 4.58696 | 38337 ft | 422 kts | 250° |
| 2026-04-26 21:42 | 56.41679 | 4.48964 | 38350 ft | 422 kts | 249° |
| 2026-04-26 21:42 | 56.39362 | 4.39242 | 38340 ft | 422 kts | 249° |
| 2026-04-26 21:43 | 56.37025 | 4.29543 | 38351 ft | 421 kts | 249° |
| 2026-04-26 21:43 | 56.34693 | 4.19928 | 38348 ft | 421 kts | 249° |
| 2026-04-26 21:44 | 56.32344 | 4.10267 | 38344 ft | 421 kts | 249° |
| 2026-04-26 21:44 | 56.29989 | 4.00616 | 38347 ft | 421 kts | 249° |
| 2026-04-26 21:45 | 56.27631 | 3.90991 | 38347 ft | 420 kts | 249° |
| 2026-04-26 21:45 | 56.25266 | 3.81382 | 38335 ft | 420 kts | 249° |
| 2026-04-26 21:46 | 56.22912 | 3.71857 | 38331 ft | 419 kts | 249° |
| 2026-04-26 21:46 | 56.20542 | 3.62298 | 38318 ft | 419 kts | 249° |
| 2026-04-26 21:47 | 56.18165 | 3.52761 | 38319 ft | 418 kts | 249° |
| 2026-04-26 21:47 | 56.16418 | 3.42888 | 38331 ft | 414 kts | 258° |
| 2026-04-26 21:48 | 56.15073 | 3.32912 | 38321 ft | 414 kts | 258° |
| 2026-04-26 21:48 | 56.13701 | 3.22883 | 38317 ft | 414 kts | 258° |
| 2026-04-26 21:49 | 56.12305 | 3.12864 | 38332 ft | 414 kts | 257° |
| 2026-04-26 21:49 | 56.10894 | 3.02852 | 38333 ft | 414 kts | 257° |
| 2026-04-26 21:50 | 56.09713 | 2.94537 | 38330 ft | 415 kts | 257° |
| 2026-04-26 21:50 | 56.08052 | 2.82910 | 38325 ft | 415 kts | 257° |
| 2026-04-26 21:51 | 56.06613 | 2.72906 | 38331 ft | 415 kts | 257° |
| 2026-04-26 21:51 | 56.05165 | 2.62907 | 38329 ft | 416 kts | 257° |
| 2026-04-26 21:52 | 56.03707 | 2.52897 | 38328 ft | 416 kts | 257° |
| 2026-04-26 21:52 | 56.02239 | 2.42889 | 38326 ft | 417 kts | 257° |
| 2026-04-26 21:53 | 56.00771 | 2.32940 | 38324 ft | 417 kts | 257° |
| 2026-04-26 21:53 | 55.99284 | 2.22923 | 38322 ft | 417 kts | 256° |
| 2026-04-26 21:54 | 55.97788 | 2.12906 | 38321 ft | 417 kts | 256° |
| 2026-04-26 21:54 | 55.96283 | 2.02895 | 38321 ft | 418 kts | 256° |
| 2026-04-26 21:55 | 55.94770 | 1.92888 | 38321 ft | 418 kts | 256° |
| 2026-04-26 21:55 | 55.93258 | 1.82951 | 38320 ft | 418 kts | 256° |
| 2026-04-26 21:56 | 55.91727 | 1.72953 | 38315 ft | 418 kts | 256° |
| 2026-04-26 21:56 | 55.90190 | 1.62970 | 38326 ft | 417 kts | 256° |
| 2026-04-26 21:57 | 55.88645 | 1.52999 | 38304 ft | 417 kts | 256° |
| 2026-04-26 21:57 | 55.86872 | 1.43237 | 38308 ft | 417 kts | 251° |
| 2026-04-26 21:58 | 55.84847 | 1.33565 | 38303 ft | 417 kts | 251° |
| 2026-04-26 21:58 | 55.82821 | 1.23915 | 38305 ft | 416 kts | 251° |
| 2026-04-26 21:59 | 55.80819 | 1.14265 | 38304 ft | 415 kts | 251° |
| 2026-04-26 21:59 | 55.78828 | 1.04633 | 38300 ft | 415 kts | 251° |
| 2026-04-26 22:00 | 55.76851 | 0.95089 | 38295 ft | 414 kts | 251° |
| 2026-04-26 22:00 | 55.74855 | 0.85498 | 38292 ft | 414 kts | 251° |
| 2026-04-26 22:01 | 55.72852 | 0.75917 | 38294 ft | 414 kts | 251° |
| 2026-04-26 22:01 | 55.70838 | 0.66331 | 38292 ft | 415 kts | 251° |
| 2026-04-26 22:02 | 55.68827 | 0.56810 | 38291 ft | 415 kts | 251° |
| 2026-04-26 22:02 | 55.66793 | 0.47221 | 38295 ft | 416 kts | 251° |
| 2026-04-26 22:03 | 55.64748 | 0.37627 | 38284 ft | 417 kts | 251° |
| 2026-04-26 22:03 | 55.62695 | 0.28041 | 38286 ft | 417 kts | 251° |
| 2026-04-26 22:04 | 55.60632 | 0.18451 | 38280 ft | 417 kts | 250° |
| 2026-04-26 22:04 | 55.58576 | 0.08939 | 38280 ft | 417 kts | 250° |
| 2026-04-26 22:05 | 55.56497 | -0.00631 | 38281 ft | 417 kts | 250° |
| 2026-04-26 22:05 | 55.54413 | -0.10183 | 38278 ft | 417 kts | 250° |
| 2026-04-26 22:06 | 55.52321 | -0.19730 | 38251 ft | 417 kts | 250° |
| 2026-04-26 22:06 | 55.50226 | -0.29244 | 38271 ft | 416 kts | 250° |
| 2026-04-26 22:07 | 55.48138 | -0.38681 | 38276 ft | 416 kts | 250° |
| 2026-04-26 22:07 | 55.46030 | -0.48170 | 38274 ft | 416 kts | 250° |
| 2026-04-26 22:08 | 55.43916 | -0.57642 | 38275 ft | 416 kts | 250° |
| 2026-04-26 22:08 | 55.41793 | -0.67108 | 38269 ft | 416 kts | 250° |
| 2026-04-26 22:09 | 55.39663 | -0.76565 | 38269 ft | 416 kts | 250° |
| 2026-04-26 22:09 | 55.37541 | -0.85947 | 38184 ft | 417 kts | 250° |
| 2026-04-26 22:10 | 55.36457 | -0.90721 | 37684 ft | 421 kts | 250° |
| 2026-04-26 22:10 | 55.35374 | -0.95481 | 37104 ft | 418 kts | 249° |
| 2026-04-26 22:10 | 55.34299 | -1.00195 | 36547 ft | 415 kts | 249° |
| 2026-04-26 22:10 | 55.33225 | -1.04890 | 35956 ft | 413 kts | 249° |
| 2026-04-26 22:11 | 55.32155 | -1.09563 | 35316 ft | 412 kts | 249° |
| 2026-04-26 22:11 | 55.31088 | -1.14213 | 34696 ft | 410 kts | 249° |
| 2026-04-26 22:11 | 55.30029 | -1.18815 | 34267 ft | 404 kts | 249° |
| 2026-04-26 22:11 | 55.28995 | -1.23299 | 33757 ft | 399 kts | 249° |
| 2026-04-26 22:12 | 55.27962 | -1.27768 | 33302 ft | 393 kts | 249° |
| 2026-04-26 22:12 | 55.26943 | -1.32173 | 32861 ft | 387 kts | 248° |
| 2026-04-26 22:12 | 55.25935 | -1.36516 | 32399 ft | 382 kts | 248° |
| 2026-04-26 22:12 | 55.24940 | -1.40797 | 31967 ft | 377 kts | 248° |
| 2026-04-26 22:13 | 55.23956 | -1.45025 | 31532 ft | 373 kts | 248° |
| 2026-04-26 22:13 | 55.22978 | -1.49215 | 31105 ft | 370 kts | 248° |
| 2026-04-26 22:13 | 55.22008 | -1.53365 | 30684 ft | 366 kts | 248° |
| 2026-04-26 22:13 | 55.21046 | -1.57471 | 30258 ft | 363 kts | 248° |
| 2026-04-26 22:14 | 55.20090 | -1.61546 | 29787 ft | 360 kts | 248° |
| 2026-04-26 22:14 | 55.19155 | -1.65521 | 29367 ft | 356 kts | 248° |
| 2026-04-26 22:14 | 55.18218 | -1.69499 | 28928 ft | 352 kts | 248° |
| 2026-04-26 22:14 | 55.17288 | -1.73443 | 28503 ft | 350 kts | 248° |
| 2026-04-26 22:15 | 55.16362 | -1.77366 | 28074 ft | 347 kts | 249° |
| 2026-04-26 22:15 | 55.15842 | -1.81480 | 27295 ft | 355 kts | 270° |
| 2026-04-26 22:15 | 55.16281 | -1.85771 | 26564 ft | 364 kts | 286° |
| 2026-04-26 22:15 | 55.17392 | -1.89802 | 25805 ft | 376 kts | 302° |
| 2026-04-26 22:16 | 55.18965 | -1.93501 | 25106 ft | 381 kts | 305° |
| 2026-04-26 22:16 | 55.20620 | -1.97161 | 24387 ft | 386 kts | 306° |
| 2026-04-26 22:16 | 55.22285 | -2.00790 | 23679 ft | 389 kts | 307° |
| 2026-04-26 22:16 | 55.23980 | -2.04495 | 22859 ft | 391 kts | 307° |
| 2026-04-26 22:17 | 55.25670 | -2.08216 | 22063 ft | 387 kts | 306° |
| 2026-04-26 22:17 | 55.27326 | -2.11894 | 21286 ft | 382 kts | 306° |
| 2026-04-26 22:17 | 55.28956 | -2.15541 | 20544 ft | 378 kts | 306° |
| 2026-04-26 22:17 | 55.30558 | -2.19139 | 19876 ft | 371 kts | 306° |
| 2026-04-26 22:18 | 55.32136 | -2.22698 | 19155 ft | 367 kts | 306° |
| 2026-04-26 22:18 | 55.33695 | -2.26223 | 18428 ft | 364 kts | 306° |
| 2026-04-26 22:18 | 55.35225 | -2.29690 | 17635 ft | 366 kts | 306° |
| 2026-04-26 22:18 | 55.36788 | -2.33238 | 16855 ft | 368 kts | 306° |
| 2026-04-26 22:19 | 55.38361 | -2.36814 | 16091 ft | 371 kts | 306° |
| 2026-04-26 22:19 | 55.39941 | -2.40411 | 15348 ft | 372 kts | 306° |
| 2026-04-26 22:19 | 55.41525 | -2.44021 | 14624 ft | 373 kts | 306° |
| 2026-04-26 22:19 | 55.43112 | -2.47641 | 13897 ft | 374 kts | 306° |
| 2026-04-26 22:20 | 55.44696 | -2.51261 | 13141 ft | 371 kts | 306° |
| 2026-04-26 22:20 | 55.45717 | -2.53593 | 12996 ft | 356 kts | 306° |
| 2026-04-26 22:20 | 55.47672 | -2.58061 | 12614 ft | 333 kts | 305° |
| 2026-04-26 22:20 | 55.49033 | -2.61179 | 12304 ft | 319 kts | 305° |
| 2026-04-26 22:21 | 55.50365 | -2.64240 | 11932 ft | 312 kts | 305° |
| 2026-04-26 22:21 | 55.51677 | -2.67261 | 11571 ft | 309 kts | 305° |
| 2026-04-26 22:21 | 55.52978 | -2.70261 | 11009 ft | 307 kts | 305° |
| 2026-04-26 22:21 | 55.54264 | -2.73229 | 10586 ft | 301 kts | 305° |
| 2026-04-26 22:22 | 55.55527 | -2.76145 | 10337 ft | 295 kts | 304° |
| 2026-04-26 22:22 | 55.56756 | -2.78986 | 10179 ft | 288 kts | 304° |
| 2026-04-26 22:22 | 55.57952 | -2.81755 | 10057 ft | 280 kts | 305° |
| 2026-04-26 22:22 | 55.59127 | -2.84476 | 9743 ft | 278 kts | 305° |
| 2026-04-26 22:23 | 55.60280 | -2.87155 | 9456 ft | 277 kts | 305° |
| 2026-04-26 22:23 | 55.61448 | -2.89868 | 9145 ft | 277 kts | 305° |
| 2026-04-26 22:23 | 55.62612 | -2.92574 | 8832 ft | 276 kts | 305° |
| 2026-04-26 22:23 | 55.63769 | -2.95267 | 8522 ft | 275 kts | 305° |
| 2026-04-26 22:24 | 55.64923 | -2.97957 | 8226 ft | 274 kts | 305° |
| 2026-04-26 22:24 | 55.66076 | -3.00646 | 7908 ft | 274 kts | 305° |
| 2026-04-26 22:24 | 55.67224 | -3.03323 | 7613 ft | 273 kts | 305° |
| 2026-04-26 22:24 | 55.68369 | -3.06000 | 7327 ft | 271 kts | 305° |
| 2026-04-26 22:25 | 55.69492 | -3.08627 | 7198 ft | 264 kts | 305° |
| 2026-04-26 22:25 | 55.70582 | -3.11139 | 7057 ft | 257 kts | 309° |
| 2026-04-26 22:25 | 55.72022 | -3.12937 | 6910 ft | 255 kts | 339° |
| 2026-04-26 22:25 | 55.73766 | -3.13246 | 6780 ft | 254 kts | 4° |
| 2026-04-26 22:26 | 55.75504 | -3.12728 | 6685 ft | 253 kts | 8° |
| 2026-04-26 22:26 | 55.77243 | -3.12118 | 6492 ft | 256 kts | 9° |
| 2026-04-26 22:26 | 55.78997 | -3.11492 | 6288 ft | 257 kts | 9° |
| 2026-04-26 22:26 | 55.80740 | -3.10861 | 6074 ft | 254 kts | 9° |
| 2026-04-26 22:27 | 55.82455 | -3.10233 | 5866 ft | 250 kts | 9° |
| 2026-04-26 22:27 | 55.84156 | -3.09604 | 5607 ft | 249 kts | 9° |
| 2026-04-26 22:27 | 55.85824 | -3.08985 | 5356 ft | 247 kts | 9° |
| 2026-04-26 22:27 | 55.87504 | -3.08355 | 5105 ft | 246 kts | 9° |
| 2026-04-26 22:28 | 55.89169 | -3.07727 | 4840 ft | 242 kts | 9° |
| 2026-04-26 22:28 | 55.90797 | -3.07106 | 4568 ft | 237 kts | 9° |
| 2026-04-26 22:28 | 55.92404 | -3.06493 | 4321 ft | 236 kts | 9° |
| 2026-04-26 22:28 | 55.93989 | -3.05885 | 4125 ft | 229 kts | 9° |
| 2026-04-26 22:29 | 55.95519 | -3.05295 | 3923 ft | 220 kts | 9° |
| 2026-04-26 22:29 | 55.96976 | -3.04730 | 3800 ft | 208 kts | 9° |
| 2026-04-26 22:29 | 55.98370 | -3.04464 | 3674 ft | 195 kts | 358° |
| 2026-04-26 22:29 | 55.99706 | -3.04380 | 3602 ft | 195 kts | 359° |
| 2026-04-26 22:30 | 56.01056 | -3.04280 | 3521 ft | 193 kts | 359° |
| 2026-04-26 22:30 | 56.02378 | -3.04470 | 3421 ft | 189 kts | 334° |
| 2026-04-26 22:30 | 56.03334 | -3.05929 | 3351 ft | 178 kts | 297° |
| 2026-04-26 22:30 | 56.03689 | -3.07949 | 3298 ft | 167 kts | 270° |
| 2026-04-26 22:31 | 56.03659 | -3.09995 | 3277 ft | 164 kts | 269° |
| 2026-04-26 22:31 | 56.03477 | -3.12004 | 3183 ft | 168 kts | 246° |
| 2026-04-26 22:31 | 56.02917 | -3.13848 | 2992 ft | 170 kts | 243° |
| 2026-04-26 22:31 | 56.02334 | -3.15667 | 2774 ft | 167 kts | 241° |
| 2026-04-26 22:32 | 56.01749 | -3.17408 | 2547 ft | 163 kts | 241° |
| 2026-04-26 22:32 | 56.01167 | -3.19120 | 2333 ft | 159 kts | 241° |
| 2026-04-26 22:32 | 56.00591 | -3.20809 | 2123 ft | 159 kts | 241° |
| 2026-04-26 22:32 | 56.00014 | -3.22501 | 1910 ft | 160 kts | 241° |
| 2026-04-26 22:33 | 55.99434 | -3.24205 | 1687 ft | 161 kts | 240° |
| 2026-04-26 22:33 | 55.98294 | -3.27551 | 1247 ft | 149 kts | 240° |
| 2026-04-26 22:33 | 55.97777 | -3.29069 | 1067 ft | 139 kts | 240° |
| 2026-04-26 22:34 | 55.97284 | -3.30519 | 857 ft | 136 kts | 240° |
| 2026-04-26 22:34 | 55.96796 | -3.31965 | 647 ft | 139 kts | 239° |
| 2026-04-26 22:34 | 55.96289 | -3.33449 | 459 ft | 141 kts | 239° |
| 2026-04-26 22:34 | 55.95784 | -3.34940 | 268 ft | 139 kts | 240° |
| 2026-04-26 22:35 | 55.95285 | -3.36400 | 111 ft | 133 kts | 239° |
| 2026-04-26 22:35 | 55.94922 | -3.37490 | 109 ft | 58 kts | 238° |
| 2026-04-26 22:35 | 55.94793 | -3.37859 | 114 ft | 20 kts | 239° |
| 2026-04-26 22:35 | 55.94738 | -3.38026 | 112 ft | 11 kts | 238° |
| 2026-04-26 22:36 | 55.94691 | -3.38056 | 113 ft | 6 kts | 152° |
| 2026-04-26 22:36 | 55.94652 | -3.38015 | 114 ft | 8 kts | 148° |
| 2026-04-26 22:36 | 55.94594 | -3.37948 | 115 ft | 10 kts | 133° |
| 2026-04-26 22:36 | 55.94621 | -3.37792 | 114 ft | 20 kts | 58° |
| 2026-04-26 22:37 | 55.94711 | -3.37528 | 115 ft | 28 kts | 59° |
| 2026-04-26 22:37 | 55.94812 | -3.37230 | 115 ft | 27 kts | 59° |
| 2026-04-26 22:37 | 55.94895 | -3.36988 | 113 ft | 17 kts | 58° |
| 2026-04-26 22:37 | 55.94923 | -3.36847 | 115 ft | 11 kts | 112° |
| 2026-04-26 22:38 | 55.94858 | -3.36781 | 114 ft | 11 kts | 174° |
| 2026-04-26 22:38 | 55.94782 | -3.36772 | 115 ft | 11 kts | 165° |
| 2026-04-26 22:38 | 55.94716 | -3.36738 | 115 ft | 10 kts | 176° |
| 2026-04-26 22:38 | 55.94658 | -3.36736 | 115 ft | 6 kts | 178° |
| 2026-04-26 22:39 | 55.94628 | -3.36735 | 115 ft | 4 kts | 179° |
| 2026-04-26 22:39 | 55.94611 | -3.36718 | 112 ft | 3 kts | 120° |
| 2026-04-26 22:39 | 55.94610 | -3.36687 | 115 ft | 2 kts | 84° |
| 2026-04-26 22:39 | 55.94611 | -3.36657 | 115 ft | 2 kts | 87° |
| 2026-04-26 22:40 | 55.94612 | -3.36639 | 112 ft | 1 kts | 88° |
| 2026-04-26 22:40 | 55.94612 | -3.36634 | 113 ft | 0 kts | 88° |